Time;durP1;ratioP1;P1;durP2;ratioP2;P2;SDS_P1;SDS_P2;PMS_P1;PMS_P2;Temp;Humidity;BMP_temperature;BMP_pressure;BME280_temperature;BME280_humidity;BME280_pressure;Samples;Min_cycle;Max_cycle;Signal;HPM_P1;HPM_P2
2023/07/28 00:01:37;;;;;;;0.25;0.25;;;20.40;88.00;;;;;;5110401;28;20233;-82
2023/07/28 00:04:09;;;;;;;0.40;0.40;;;20.40;88.30;;;;;;5110735;28;20189;-84
2023/07/28 00:06:38;;;;;;;0.32;0.30;;;20.40;88.20;;;;;;5104892;28;20272;-82
2023/07/28 00:09:07;;;;;;;0.43;0.43;;;20.40;88.30;;;;;;5108868;28;20275;-85
2023/07/28 00:11:35;;;;;;;0.20;0.20;;;20.40;88.30;;;;;;5112160;28;20742;-82
2023/07/28 00:14:04;;;;;;;0.20;0.20;;;20.30;88.10;;;;;;5111414;28;20190;-83
2023/07/28 00:16:33;;;;;;;0.55;0.55;;;20.40;88.30;;;;;;5077943;28;20197;-83
2023/07/28 00:19:03;;;;;;;0.73;0.70;;;20.40;88.30;;;;;;5088620;28;20197;-83
2023/07/28 00:21:32;;;;;;;1.17;0.20;;;20.30;88.30;;;;;;5110935;28;20229;-83
2023/07/28 00:24:01;;;;;;;0.95;0.43;;;20.40;88.10;;;;;;5109660;28;20201;-83
2023/07/28 00:26:29;;;;;;;0.20;0.20;;;20.40;88.10;;;;;;5109890;28;20193;-84
2023/07/28 00:28:59;;;;;;;0.20;0.20;;;20.40;88.10;;;;;;5109293;27;20193;-82
2023/07/28 00:31:27;;;;;;;0.50;0.50;;;20.40;88.30;;;;;;5103989;28;20726;-83
2023/07/28 00:33:56;;;;;;;1.10;1.00;;;20.40;88.40;;;;;;5108095;27;20208;-84
2023/07/28 00:36:26;;;;;;;1.65;1.50;;;20.30;88.30;;;;;;5111000;28;20193;-83
2023/07/28 00:38:55;;;;;;;0.40;0.40;;;20.30;88.20;;;;;;5109442;28;20201;-84
2023/07/28 00:41:24;;;;;;;0.25;0.25;;;20.30;88.00;;;;;;5111523;28;20193;-85
2023/07/28 00:43:53;;;;;;;0.45;0.38;;;20.30;87.90;;;;;;5105622;27;20204;-85
2023/07/28 00:46:22;;;;;;;0.28;0.28;;;20.40;88.30;;;;;;5111948;28;20197;-85
2023/07/28 00:48:51;;;;;;;0.30;0.30;;;20.30;88.10;;;;;;5108474;28;20205;-84
2023/07/28 00:51:19;;;;;;;0.47;0.30;;;20.30;87.90;;;;;;5089871;28;20232;-85
2023/07/28 00:53:52;;;;;;;0.32;0.32;;;20.30;87.90;;;;;;5093991;28;20205;-83
2023/07/28 00:56:22;;;;;;;0.20;0.20;;;20.30;87.70;;;;;;5111378;28;20647;-86
2023/07/28 00:58:51;;;;;;;0.73;0.73;;;20.30;87.50;;;;;;5107799;28;20193;-84
2023/07/28 01:01:20;;;;;;;1.77;0.35;;;20.30;87.50;;;;;;5112844;28;20193;-82
2023/07/28 01:03:48;;;;;;;0.30;0.30;;;20.30;87.40;;;;;;5090818;28;20447;-83
2023/07/28 01:06:27;;;;;;;0.30;0.30;;;20.20;87.50;;;;;;5108428;28;20854;-84
2023/07/28 01:09:03;;;;;;;0.40;0.40;;;20.20;87.40;;;;;;5092706;28;20196;-85
2023/07/28 01:11:32;;;;;;;0.30;0.30;;;20.20;87.30;;;;;;5107597;28;20258;-85
2023/07/28 01:14:00;;;;;;;0.30;0.30;;;20.20;87.20;;;;;;5109829;27;21810;-86
2023/07/28 01:16:29;;;;;;;0.20;0.20;;;20.20;87.10;;;;;;5107498;28;20581;-85
2023/07/28 01:18:58;;;;;;;0.30;0.30;;;20.20;87.10;;;;;;5107919;27;20200;-85
2023/07/28 01:21:31;;;;;;;0.57;0.55;;;20.20;87.00;;;;;;5109782;28;20229;-85
2023/07/28 01:24:15;;;;;;;0.82;0.60;;;20.10;86.90;;;;;;5093004;28;20189;-85
2023/07/28 01:26:46;;;;;;;0.40;0.40;;;20.10;86.80;;;;;;5107702;28;20280;-84
2023/07/28 01:29:16;;;;;;;0.30;0.30;;;20.10;86.80;;;;;;5110676;28;20193;-86
2023/07/28 01:31:47;;;;;;;0.30;0.20;;;20.00;86.60;;;;;;5102975;27;20220;-83
2023/07/28 01:34:16;;;;;;;0.38;0.38;;;20.10;86.50;;;;;;5104666;28;20268;-85
2023/07/28 01:36:43;;;;;;;0.35;0.35;;;20.00;86.40;;;;;;5107587;28;20204;-84
2023/07/28 01:39:12;;;;;;;0.25;0.25;;;20.00;86.30;;;;;;5092611;28;20196;-85
2023/07/28 01:41:43;;;;;;;0.27;0.27;;;20.00;86.30;;;;;;5105394;28;20197;-84
2023/07/28 01:44:13;;;;;;;0.32;0.30;;;20.00;86.20;;;;;;5111707;28;20640;-85
2023/07/28 01:46:42;;;;;;;6.70;1.43;;;20.00;86.10;;;;;;5107707;28;21178;-84
2023/07/28 01:49:10;;;;;;;0.70;0.70;;;20.00;86.10;;;;;;5091931;28;20668;-85
2023/07/28 01:51:41;;;;;;;0.33;0.33;;;20.00;86.00;;;;;;5105198;28;20749;-84
2023/07/28 01:54:09;;;;;;;0.20;0.20;;;20.00;86.00;;;;;;5105960;28;20653;-85
2023/07/28 01:56:38;;;;;;;1.10;1.00;;;20.00;86.00;;;;;;5109237;28;20246;-83
2023/07/28 01:59:06;;;;;;;2.87;0.33;;;19.90;85.90;;;;;;5091217;28;20201;-86
2023/07/28 02:01:37;;;;;;;0.50;0.50;;;19.90;85.80;;;;;;5109390;28;20644;-85
2023/07/28 02:04:05;;;;;;;0.20;0.20;;;19.90;85.80;;;;;;5106748;27;20204;-86
2023/07/28 02:06:34;;;;;;;0.40;0.40;;;19.90;85.70;;;;;;5108527;28;20215;-83
2023/07/28 02:09:03;;;;;;;0.43;0.43;;;19.80;85.60;;;;;;5093060;28;20620;-84
2023/07/28 02:11:32;;;;;;;0.37;0.30;;;19.90;85.60;;;;;;5108784;28;20225;-85
2023/07/28 02:14:01;;;;;;;0.45;0.43;;;19.80;85.50;;;;;;5110382;28;20189;-85
2023/07/28 02:16:31;;;;;;;0.83;0.47;;;19.80;85.50;;;;;;5092142;28;20193;-85
2023/07/28 02:19:02;;;;;;;0.30;0.30;;;19.80;85.50;;;;;;5108681;28;20189;-86
2023/07/28 02:21:31;;;;;;;0.60;0.60;;;19.80;85.50;;;;;;5108173;28;20593;-85
2023/07/28 02:23:59;;;;;;;0.30;0.30;;;19.80;85.50;;;;;;5106307;28;20232;-84
2023/07/28 02:26:28;;;;;;;0.20;0.20;;;19.70;85.40;;;;;;5109920;28;20193;-86
2023/07/28 02:28:57;;;;;;;0.57;0.57;;;19.70;85.30;;;;;;5089017;28;20268;-86
2023/07/28 02:31:26;;;;;;;0.75;0.75;;;19.70;85.20;;;;;;5105593;28;20213;-84
2023/07/28 02:33:54;;;;;;;0.40;0.40;;;19.70;85.20;;;;;;5102123;28;20943;-83
2023/07/28 02:36:25;;;;;;;0.43;0.43;;;19.70;85.20;;;;;;5109259;28;20201;-85
2023/07/28 02:38:54;;;;;;;0.57;0.40;;;19.60;85.10;;;;;;5106684;28;20595;-86
2023/07/28 02:41:22;;;;;;;0.43;0.43;;;19.70;85.20;;;;;;5109320;27;20548;-85
2023/07/28 02:43:51;;;;;;;0.30;0.30;;;19.60;85.00;;;;;;5086206;28;20200;-84
2023/07/28 02:46:21;;;;;;;0.30;0.30;;;19.60;85.00;;;;;;5053105;28;20190;-86
2023/07/28 02:48:49;;;;;;;0.30;0.30;;;19.60;85.00;;;;;;5105384;28;20282;-84
2023/07/28 02:51:18;;;;;;;1.10;1.00;;;19.60;85.10;;;;;;5108314;28;20189;-85
2023/07/28 02:53:49;;;;;;;0.30;0.30;;;19.50;85.10;;;;;;5104146;28;20193;-85
2023/07/28 02:56:17;;;;;;;0.57;0.57;;;19.50;85.10;;;;;;5101873;28;20189;-85
2023/07/28 02:58:46;;;;;;;0.50;0.50;;;19.50;85.10;;;;;;5106342;28;20197;-85
2023/07/28 03:01:15;;;;;;;0.40;0.40;;;19.40;85.80;;;;;;5089376;28;20595;-84
2023/07/28 03:03:44;;;;;;;1.27;0.83;;;19.40;85.00;;;;;;5104330;28;20204;-86
2023/07/28 03:06:12;;;;;;;1.53;0.50;;;19.40;85.10;;;;;;5109850;28;20189;-85
2023/07/28 03:08:41;;;;;;;1.03;0.93;;;19.40;85.10;;;;;;5106210;28;20185;-85
2023/07/28 03:11:11;;;;;;;0.33;0.27;;;19.40;85.40;;;;;;5108993;28;20533;-84
2023/07/28 03:13:40;;;;;;;1.13;0.90;;;19.30;85.50;;;;;;5101081;28;20206;-85
2023/07/28 03:16:08;;;;;;;0.43;0.40;;;19.30;85.50;;;;;;5099961;28;20194;-84
2023/07/28 03:18:36;;;;;;;1.67;0.67;;;19.30;85.50;;;;;;5083654;28;20189;-85
2023/07/28 03:21:05;;;;;;;1.13;1.03;;;19.30;85.70;;;;;;5108412;28;20311;-85
2023/07/28 03:23:33;;;;;;;0.87;0.30;;;19.20;85.70;;;;;;5107758;28;20209;-85
2023/07/28 03:26:02;;;;;;;0.40;0.40;;;19.20;85.80;;;;;;5106881;28;20201;-83
2023/07/28 03:28:32;;;;;;;0.77;0.77;;;19.20;85.70;;;;;;5107090;28;20527;-84
2023/07/28 03:31:01;;;;;;;0.60;0.60;;;19.20;85.70;;;;;;5109486;28;20200;-85
2023/07/28 03:33:29;;;;;;;0.30;0.30;;;19.20;85.70;;;;;;5113313;28;20224;-85
2023/07/28 03:35:58;;;;;;;0.80;0.80;;;19.20;85.70;;;;;;5094375;28;20685;-85
2023/07/28 03:38:27;;;;;;;0.77;0.73;;;19.30;85.70;;;;;;5091896;28;20193;-85
2023/07/28 03:40:56;;;;;;;0.80;0.57;;;19.20;85.40;;;;;;5110740;28;20250;-84
2023/07/28 03:43:25;;;;;;;0.63;0.63;;;19.20;85.30;;;;;;5113956;28;20686;-85
2023/07/28 03:45:55;;;;;;;0.60;0.60;;;19.20;85.20;;;;;;5108008;28;20440;-84
2023/07/28 03:48:24;;;;;;;0.52;0.52;;;19.20;85.80;;;;;;5104006;28;20219;-83
2023/07/28 03:50:53;;;;;;;2.63;0.60;;;19.20;85.70;;;;;;5106099;28;20599;-83
2023/07/28 03:53:22;;;;;;;1.07;0.67;;;19.30;85.60;;;;;;5110549;27;20220;-86
2023/07/28 03:55:50;;;;;;;0.47;0.47;;;19.30;85.40;;;;;;5110540;28;20197;-85
2023/07/28 03:58:18;;;;;;;2.43;1.00;;;19.30;84.80;;;;;;5109963;28;20193;-84
2023/07/28 04:00:48;;;;;;;0.77;0.77;;;19.40;84.80;;;;;;5103612;28;20276;-84
2023/07/28 04:03:18;;;;;;;0.57;0.57;;;19.40;84.40;;;;;;5093125;28;20271;-84
2023/07/28 04:05:46;;;;;;;1.50;0.73;;;19.40;84.20;;;;;;5110937;28;20204;-85
2023/07/28 04:08:15;;;;;;;1.35;0.88;;;19.40;83.90;;;;;;5111394;28;20726;-84
2023/07/28 04:10:43;;;;;;;0.50;0.50;;;19.40;83.90;;;;;;5111055;28;20292;-84
2023/07/28 04:13:12;;;;;;;0.77;0.67;;;19.40;83.90;;;;;;5109882;28;20224;-85
2023/07/28 04:15:40;;;;;;;1.03;0.97;;;19.40;83.90;;;;;;5095883;28;20201;-85
2023/07/28 04:18:09;;;;;;;1.15;0.65;;;19.40;83.80;;;;;;5108022;28;20688;-82
2023/07/28 04:20:39;;;;;;;0.40;0.40;;;19.50;83.60;;;;;;5107285;28;20220;-84
2023/07/28 04:23:08;;;;;;;0.27;0.27;;;19.50;83.50;;;;;;5111890;28;20185;-85
2023/07/28 04:25:36;;;;;;;0.70;0.70;;;19.50;83.20;;;;;;5107988;28;20193;-82
2023/07/28 04:28:05;;;;;;;0.55;0.55;;;19.50;83.20;;;;;;5091031;28;20266;-85
2023/07/28 04:30:35;;;;;;;1.17;1.03;;;19.60;82.90;;;;;;5108883;28;20202;-83
2023/07/28 04:33:04;;;;;;;0.55;0.52;;;19.50;82.60;;;;;;5110390;28;20224;-84
2023/07/28 04:35:32;;;;;;;0.30;0.30;;;19.60;82.70;;;;;;5110098;28;20197;-83
2023/07/28 04:38:03;;;;;;;0.93;0.87;;;19.60;82.70;;;;;;5109405;28;20219;-84
2023/07/28 04:40:32;;;;;;;0.40;0.40;;;19.60;82.70;;;;;;5069358;28;20280;-83
2023/07/28 04:43:01;;;;;;;0.50;0.50;;;19.60;82.60;;;;;;5103224;28;20648;-84
2023/07/28 04:45:29;;;;;;;0.63;0.63;;;19.70;82.70;;;;;;5102000;28;20197;-82
2023/07/28 04:47:57;;;;;;;0.85;0.57;;;19.70;82.40;;;;;;5111231;27;20193;-84
2023/07/28 04:50:26;;;;;;;0.63;0.60;;;19.70;82.10;;;;;;5105165;28;20217;-85
2023/07/28 04:52:54;;;;;;;0.20;0.20;;;19.80;82.10;;;;;;5111498;28;20260;-84
2023/07/28 04:55:26;;;;;;;2.72;0.50;;;19.80;82.20;;;;;;5112228;28;20195;-88
2023/07/28 04:57:55;;;;;;;0.57;0.50;;;19.90;82.20;;;;;;5093288;28;20236;-85
2023/07/28 05:00:25;;;;;;;0.65;0.65;;;19.90;81.80;;;;;;5088109;28;20280;-84
2023/07/28 05:02:53;;;;;;;0.30;0.30;;;20.00;81.80;;;;;;5091807;28;20189;-85
2023/07/28 05:05:21;;;;;;;0.75;0.30;;;20.00;81.70;;;;;;5109092;28;20693;-85
2023/07/28 05:07:50;;;;;;;0.43;0.32;;;20.10;81.40;;;;;;5105431;27;20571;-84
2023/07/28 05:10:18;;;;;;;0.50;0.50;;;20.20;81.40;;;;;;5107074;28;20228;-83
2023/07/28 05:12:49;;;;;;;0.55;0.40;;;20.20;81.20;;;;;;5108152;28;20198;-81
2023/07/28 05:15:17;;;;;;;0.98;0.45;;;20.30;81.10;;;;;;5111216;27;20185;-83
2023/07/28 05:17:48;;;;;;;0.50;0.47;;;20.30;80.80;;;;;;5108045;28;20281;-86
2023/07/28 05:20:17;;;;;;;0.30;0.30;;;20.40;80.40;;;;;;5110615;28;20623;-83
2023/07/28 05:22:45;;;;;;;0.20;0.20;;;20.50;80.40;;;;;;5110762;28;20193;-84
2023/07/28 05:25:15;;;;;;;0.20;0.20;;;20.50;80.50;;;;;;5107856;27;20193;-84
2023/07/28 05:27:43;;;;;;;0.20;0.20;;;20.60;80.50;;;;;;5102142;28;20197;-82
2023/07/28 05:30:17;;;;;;;0.30;0.30;;;20.70;80.60;;;;;;5103443;28;20209;-84
2023/07/28 05:32:46;;;;;;;1.75;0.75;;;20.80;80.70;;;;;;5107175;28;20196;-84
2023/07/28 05:35:16;;;;;;;0.20;0.20;;;20.80;80.60;;;;;;5108229;28;20193;-81
2023/07/28 05:37:44;;;;;;;0.30;0.30;;;20.90;80.70;;;;;;5108709;28;20220;-86
2023/07/28 05:40:14;;;;;;;3.55;0.55;;;21.00;80.80;;;;;;5109540;28;20197;-81
2023/07/28 05:42:43;;;;;;;0.20;0.20;;;21.10;80.60;;;;;;5108883;28;20189;-83
2023/07/28 05:45:12;;;;;;;0.68;0.68;;;21.10;81.10;;;;;;5107438;28;20201;-83
2023/07/28 05:47:44;;;;;;;2.70;0.45;;;21.20;80.20;;;;;;5111058;28;20197;-84
2023/07/28 05:50:13;;;;;;;0.77;0.70;;;21.30;80.30;;;;;;5106941;28;20603;-83
2023/07/28 05:52:41;;;;;;;0.40;0.40;;;21.30;80.40;;;;;;5103948;28;20196;-83
2023/07/28 05:55:10;;;;;;;0.50;0.50;;;21.40;80.50;;;;;;5103919;28;20273;-82
2023/07/28 05:57:39;;;;;;;0.30;0.30;;;21.50;80.50;;;;;;5106356;27;20197;-83
2023/07/28 06:00:09;;;;;;;0.35;0.35;;;21.60;80.50;;;;;;5108834;27;20197;-84
2023/07/28 06:02:39;;;;;;;0.32;0.32;;;21.60;80.30;;;;;;5109190;28;20667;-82
2023/07/28 06:05:10;;;;;;;0.30;0.30;;;21.70;80.00;;;;;;5107754;27;20842;-82
2023/07/28 06:07:38;;;;;;;0.28;0.28;;;21.80;79.00;;;;;;5085098;28;20668;-83
2023/07/28 06:10:08;;;;;;;0.32;0.32;;;21.90;78.80;;;;;;5109838;28;20200;-83
2023/07/28 06:12:37;;;;;;;0.40;0.38;;;21.90;79.00;;;;;;5107000;28;20193;-83
2023/07/28 06:15:07;;;;;;;0.30;0.30;;;22.00;78.40;;;;;;5109659;28;20695;-85
2023/07/28 06:17:35;;;;;;;0.40;0.40;;;22.10;77.80;;;;;;5106218;28;20189;-85
2023/07/28 06:20:04;;;;;;;0.43;0.43;;;22.20;77.50;;;;;;5104059;28;20772;-84
2023/07/28 06:22:35;;;;;;;0.82;0.82;;;22.20;75.90;;;;;;5108747;28;20200;-83
2023/07/28 06:25:05;;;;;;;1.15;0.50;;;22.30;76.10;;;;;;5104759;28;20181;-82
2023/07/28 06:27:34;;;;;;;0.30;0.30;;;22.40;75.50;;;;;;5104487;28;20193;-83
2023/07/28 06:30:02;;;;;;;0.40;0.40;;;22.50;75.20;;;;;;5110657;28;20671;-87
2023/07/28 06:32:31;;;;;;;0.43;0.43;;;22.50;75.20;;;;;;5107513;28;20185;-82
2023/07/28 06:34:59;;;;;;;2.25;1.25;;;22.60;75.10;;;;;;5110076;28;20217;-83
2023/07/28 06:37:28;;;;;;;0.75;0.75;;;22.70;74.80;;;;;;5105721;28;20189;-83
2023/07/28 06:39:58;;;;;;;0.20;0.20;;;22.70;73.50;;;;;;5090659;28;20200;-83
2023/07/28 06:42:27;;;;;;;0.45;0.45;;;22.80;72.90;;;;;;5107454;28;20204;-84
2023/07/28 06:44:56;;;;;;;0.40;0.30;;;22.80;72.80;;;;;;5111449;28;20604;-83
2023/07/28 06:47:25;;;;;;;0.45;0.45;;;22.90;72.30;;;;;;5108482;28;20593;-83
2023/07/28 06:49:54;;;;;;;0.20;0.20;;;22.90;72.20;;;;;;5109721;28;20196;-84
2023/07/28 06:52:22;;;;;;;0.30;0.30;;;23.00;72.40;;;;;;5088525;28;20193;-83
2023/07/28 06:54:51;;;;;;;0.70;0.52;;;23.00;71.40;;;;;;5107046;28;20755;-84
2023/07/28 06:57:21;;;;;;;1.08;0.55;;;23.10;71.10;;;;;;5106591;28;20189;-84
2023/07/28 06:59:49;;;;;;;0.30;0.30;;;23.10;70.10;;;;;;5110259;28;20189;-83
2023/07/28 07:02:18;;;;;;;0.82;0.80;;;23.20;70.00;;;;;;5109813;28;20678;-83
2023/07/28 07:04:47;;;;;;;0.20;0.20;;;23.20;68.60;;;;;;5109593;28;20205;-83
2023/07/28 07:07:15;;;;;;;0.60;0.40;;;23.30;67.50;;;;;;5109631;28;20189;-87
2023/07/28 07:09:45;;;;;;;0.30;0.30;;;23.20;65.20;;;;;;5110917;28;20201;-86
2023/07/28 07:12:14;;;;;;;0.20;0.20;;;23.30;65.80;;;;;;5108007;28;20224;-86
2023/07/28 07:14:45;;;;;;;0.20;0.20;;;23.40;65.90;;;;;;5091387;28;20209;-85
2023/07/28 07:17:13;;;;;;;0.60;0.60;;;23.50;66.40;;;;;;5073446;28;20197;-85
2023/07/28 07:19:42;;;;;;;0.57;0.50;;;23.50;66.40;;;;;;5110891;28;20285;-85
2023/07/28 07:22:11;;;;;;;0.40;0.40;;;23.60;65.00;;;;;;5108576;28;20198;-86
2023/07/28 07:24:39;;;;;;;0.20;0.20;;;23.60;64.70;;;;;;5108300;28;20197;-84
2023/07/28 07:27:10;;;;;;;0.20;0.20;;;23.70;65.00;;;;;;5103909;28;20251;-86
2023/07/28 07:29:39;;;;;;;0.30;0.30;;;23.70;63.60;;;;;;5106371;28;20197;-88
2023/07/28 07:32:11;;;;;;;0.40;0.40;;;23.80;63.70;;;;;;5110524;28;20197;-91
2023/07/28 07:34:39;;;;;;;0.20;0.20;;;23.80;62.10;;;;;;5104506;28;20217;-84
2023/07/28 07:37:08;;;;;;;0.20;0.20;;;23.90;61.30;;;;;;5103981;28;20193;-86
2023/07/28 07:39:36;;;;;;;0.20;0.20;;;23.90;61.60;;;;;;5102492;28;20320;-85
2023/07/28 07:42:05;;;;;;;0.40;0.40;;;24.00;62.70;;;;;;5108510;28;20192;-84
2023/07/28 07:44:34;;;;;;;0.30;0.30;;;24.00;62.10;;;;;;5108883;28;20199;-83
2023/07/28 07:47:15;;;;;;;0.30;0.30;;;24.10;62.50;;;;;;5103267;28;20189;-84
2023/07/28 07:49:44;;;;;;;0.20;0.20;;;24.10;60.50;;;;;;5085680;28;20202;-83
2023/07/28 07:52:12;;;;;;;0.10;0.10;;;24.20;59.40;;;;;;5094752;28;20201;-86
2023/07/28 07:54:41;;;;;;;0.30;0.30;;;24.20;58.90;;;;;;5075053;28;20335;-86
2023/07/28 07:57:10;;;;;;;0.68;0.47;;;24.30;59.30;;;;;;5106736;28;20201;-85
2023/07/28 07:59:38;;;;;;;0.20;0.20;;;24.30;59.30;;;;;;5106902;28;20657;-87
2023/07/28 08:02:07;;;;;;;0.50;0.30;;;24.30;58.80;;;;;;5109676;28;20185;-84
2023/07/28 08:04:38;;;;;;;0.28;0.28;;;24.40;59.20;;;;;;5075023;28;20284;-87
2023/07/28 08:07:06;;;;;;;0.30;0.30;;;24.50;60.00;;;;;;5104574;28;20225;-85
2023/07/28 08:09:35;;;;;;;0.30;0.30;;;24.40;58.20;;;;;;5109017;28;20189;-83
2023/07/28 08:12:04;;;;;;;0.28;0.20;;;24.50;59.20;;;;;;5107861;28;20309;-83
2023/07/28 08:14:32;;;;;;;0.20;0.20;;;24.50;59.70;;;;;;5110145;28;20212;-81
2023/07/28 08:17:01;;;;;;;0.30;0.30;;;24.60;59.00;;;;;;5106453;28;20608;-83
2023/07/28 08:19:30;;;;;;;0.50;0.32;;;24.70;59.60;;;;;;5094990;28;20196;-83
2023/07/28 08:22:00;;;;;;;0.20;0.20;;;24.70;59.00;;;;;;5108464;27;20199;-84
2023/07/28 08:24:28;;;;;;;0.25;0.25;;;24.70;58.40;;;;;;5114593;28;20177;-80
2023/07/28 08:26:57;;;;;;;0.45;0.30;;;24.80;59.00;;;;;;5110214;27;20200;-82
2023/07/28 08:29:26;;;;;;;0.20;0.20;;;24.90;58.90;;;;;;5092872;28;20291;-83
2023/07/28 08:31:55;;;;;;;0.38;0.38;;;24.90;59.10;;;;;;5092901;28;20204;-85
2023/07/28 08:34:24;;;;;;;0.85;0.40;;;24.90;57.90;;;;;;5108381;28;20612;-85
2023/07/28 08:36:53;;;;;;;0.20;0.20;;;24.90;58.80;;;;;;5107914;28;20197;-83
2023/07/28 08:39:23;;;;;;;0.68;0.40;;;25.00;58.30;;;;;;5106739;27;20200;-83
2023/07/28 08:41:59;;;;;;;0.30;0.30;;;25.00;58.10;;;;;;5106162;28;20443;-83
2023/07/28 08:44:30;;;;;;;0.30;0.30;;;25.00;58.90;;;;;;5095450;28;20556;-87
2023/07/28 08:46:58;;;;;;;0.32;0.32;;;25.10;59.40;;;;;;5110755;28;20194;-79
2023/07/28 08:49:27;;;;;;;0.20;0.20;;;25.00;58.50;;;;;;5110367;28;20189;-83
2023/07/28 08:52:00;;;;;;;0.40;0.30;;;25.10;58.20;;;;;;5110480;27;20186;-83
2023/07/28 08:54:31;;;;;;;0.25;0.25;;;25.20;58.00;;;;;;5113128;27;20196;-83
2023/07/28 08:56:59;;;;;;;0.35;0.35;;;25.30;58.10;;;;;;5111891;28;20189;-88
2023/07/28 08:59:29;;;;;;;0.40;0.35;;;25.40;58.50;;;;;;5108691;27;20190;-83
2023/07/28 09:02:00;;;;;;;0.35;0.35;;;25.40;58.80;;;;;;5109185;28;20208;-82
2023/07/28 09:04:29;;;;;;;0.40;0.30;;;25.50;58.50;;;;;;5087686;28;20223;-83
2023/07/28 09:06:58;;;;;;;0.20;0.20;;;25.60;57.80;;;;;;5108954;28;20200;-83
2023/07/28 09:09:36;;;;;;;0.80;0.55;;;25.70;57.90;;;;;;5111584;28;20215;-84
2023/07/28 09:12:06;;;;;;;0.47;0.45;;;25.70;57.60;;;;;;5111123;28;20192;-86
2023/07/28 09:14:37;;;;;;;0.30;0.30;;;25.70;57.90;;;;;;5111812;28;20196;-83
2023/07/28 09:17:12;;;;;;;0.50;0.50;;;25.80;56.40;;;;;;5092526;28;20216;-84
2023/07/28 09:19:52;;;;;;;0.20;0.20;;;25.80;56.30;;;;;;5108057;28;20273;-85
2023/07/28 09:22:22;;;;;;;0.50;0.50;;;25.90;55.70;;;;;;5087581;28;20283;-83
2023/07/28 09:24:55;;;;;;;0.35;0.30;;;26.00;55.60;;;;;;5085619;28;20275;-85
2023/07/28 09:27:25;;;;;;;0.30;0.30;;;26.00;53.20;;;;;;5099659;28;20546;-81
2023/07/28 09:29:56;;;;;;;0.20;0.20;;;26.10;53.70;;;;;;5109147;27;20220;-84
2023/07/28 09:32:31;;;;;;;0.20;0.20;;;26.10;54.40;;;;;;5108162;28;20188;-85
2023/07/28 09:35:10;;;;;;;0.47;0.45;;;26.20;54.50;;;;;;5111873;28;20664;-83
2023/07/28 09:37:43;;;;;;;0.38;0.38;;;26.30;54.20;;;;;;5109420;28;20192;-84
2023/07/28 09:40:15;;;;;;;0.30;0.30;;;26.30;52.80;;;;;;5111446;27;20185;-81
2023/07/28 09:42:49;;;;;;;0.20;0.20;;;26.30;52.40;;;;;;5107759;28;20201;-84
2023/07/28 09:45:22;;;;;;;0.47;0.25;;;26.40;52.80;;;;;;5110612;28;20188;-82
2023/07/28 09:48:08;;;;;;;0.30;0.30;;;26.50;53.00;;;;;;5106579;28;20284;-81
2023/07/28 09:50:38;;;;;;;3.10;0.90;;;26.60;53.00;;;;;;5109482;28;20195;-82
2023/07/28 09:53:10;;;;;;;0.85;0.50;;;26.60;53.00;;;;;;5110999;27;20580;-84
2023/07/28 09:55:43;;;;;;;0.20;0.20;;;26.70;52.30;;;;;;5104340;28;20201;-85
2023/07/28 09:58:17;;;;;;;0.22;0.22;;;26.70;52.10;;;;;;5098094;28;20197;-87
2023/07/28 10:00:46;;;;;;;0.25;0.25;;;26.80;52.10;;;;;;5107602;28;20238;-85
2023/07/28 10:03:15;;;;;;;0.45;0.25;;;26.80;49.90;;;;;;5111039;27;20246;-84
2023/07/28 10:05:45;;;;;;;0.30;0.30;;;26.80;49.80;;;;;;5106554;27;20197;-84
2023/07/28 10:08:14;;;;;;;1.48;0.30;;;26.90;50.00;;;;;;5103113;28;20201;-83
2023/07/28 10:10:45;;;;;;;0.28;0.28;;;26.90;48.80;;;;;;5104600;28;20189;-85
2023/07/28 10:13:21;;;;;;;0.20;0.20;;;27.00;49.50;;;;;;5109159;28;20199;-84
2023/07/28 10:15:51;;;;;;;0.30;0.30;;;27.10;50.80;;;;;;5106180;28;20261;-85
2023/07/28 10:18:22;;;;;;;0.20;0.20;;;27.20;49.90;;;;;;5106890;28;20189;-86
2023/07/28 10:20:51;;;;;;;0.30;0.30;;;27.20;49.60;;;;;;5106164;28;20306;-82
2023/07/28 10:23:23;;;;;;;0.60;0.40;;;27.30;50.10;;;;;;5102517;28;20216;-83
2023/07/28 10:25:59;;;;;;;0.22;0.20;;;27.20;48.80;;;;;;5108914;28;20193;-84
2023/07/28 10:28:31;;;;;;;0.88;0.82;;;27.30;48.80;;;;;;5105317;28;20184;-84
2023/07/28 10:31:01;;;;;;;0.50;0.30;;;27.20;48.10;;;;;;5108259;28;20656;-82
2023/07/28 10:33:33;;;;;;;0.22;0.20;;;27.30;48.70;;;;;;5104621;27;20666;-82
2023/07/28 10:36:12;;;;;;;0.15;0.15;;;27.30;48.70;;;;;;5106065;28;20572;-82
2023/07/28 10:38:43;;;;;;;0.80;0.60;;;27.40;49.60;;;;;;5108472;28;20188;-81
2023/07/28 10:41:16;;;;;;;0.47;0.22;;;27.40;48.70;;;;;;5108366;28;20358;-83
2023/07/28 10:43:46;;;;;;;0.30;0.30;;;27.50;48.60;;;;;;5105943;28;20197;-80
2023/07/28 10:46:17;;;;;;;0.20;0.20;;;27.50;48.20;;;;;;5103312;27;20204;-80
2023/07/28 10:48:48;;;;;;;0.30;0.30;;;27.70;48.80;;;;;;5104369;28;20542;-83
2023/07/28 10:51:23;;;;;;;0.20;0.20;;;27.70;48.20;;;;;;5104249;28;20197;-82
2023/07/28 10:53:52;;;;;;;3.28;0.28;;;27.80;48.10;;;;;;5107294;28;20203;-83
2023/07/28 10:56:23;;;;;;;0.20;0.20;;;27.80;47.30;;;;;;5109103;28;20216;-83
2023/07/28 10:58:57;;;;;;;0.20;0.20;;;27.90;48.10;;;;;;5087868;28;20195;-81
2023/07/28 11:01:34;;;;;;;0.38;0.38;;;27.80;47.40;;;;;;5106482;28;20195;-80
2023/07/28 11:04:10;;;;;;;0.20;0.20;;;27.90;47.20;;;;;;5105565;28;20200;-81
2023/07/28 11:06:42;;;;;;;0.47;0.45;;;27.90;46.30;;;;;;5104501;28;20185;-80
2023/07/28 11:09:11;;;;;;;0.40;0.40;;;28.00;47.30;;;;;;5107868;28;20640;-81
2023/07/28 11:11:41;;;;;;;0.28;0.28;;;28.00;46.20;;;;;;5089648;28;20200;-81
2023/07/28 11:14:16;;;;;;;0.28;0.28;;;28.10;45.80;;;;;;5106154;28;20188;-83
2023/07/28 11:16:47;;;;;;;0.90;0.43;;;28.10;45.80;;;;;;5104448;28;20220;-84
2023/07/28 11:19:19;;;;;;;0.20;0.20;;;28.10;46.30;;;;;;5108363;28;20598;-81
2023/07/28 11:21:51;;;;;;;0.43;0.32;;;28.20;45.30;;;;;;5104892;28;20223;-81
2023/07/28 11:24:20;;;;;;;0.30;0.30;;;28.20;46.10;;;;;;5107077;28;20190;-82
2023/07/28 11:26:51;;;;;;;0.22;0.22;;;28.30;46.90;;;;;;5108776;28;20204;-79
2023/07/28 11:29:20;;;;;;;0.30;0.30;;;28.40;46.60;;;;;;5106437;28;20275;-84
2023/07/28 11:31:51;;;;;;;0.38;0.38;;;28.50;46.80;;;;;;5105025;28;20296;-85
2023/07/28 11:34:19;;;;;;;0.30;0.30;;;28.50;46.60;;;;;;5108492;28;20197;-84
2023/07/28 11:36:48;;;;;;;0.90;0.30;;;28.50;46.80;;;;;;5107781;28;20201;-85
2023/07/28 11:39:19;;;;;;;0.63;0.47;;;28.60;46.00;;;;;;5109391;28;20193;-87
2023/07/28 11:41:48;;;;;;;3.85;0.77;;;28.60;45.80;;;;;;5102101;28;20193;-81
2023/07/28 11:44:18;;;;;;;0.52;0.43;;;28.70;45.70;;;;;;5106072;28;20185;-83
2023/07/28 11:46:47;;;;;;;0.50;0.50;;;28.70;45.80;;;;;;5109972;28;20201;-81
2023/07/28 11:49:18;;;;;;;0.20;0.20;;;28.70;44.90;;;;;;5106471;28;20221;-80
2023/07/28 11:51:49;;;;;;;0.47;0.20;;;28.80;45.40;;;;;;5108213;28;20185;-81
2023/07/28 11:54:22;;;;;;;0.20;0.20;;;28.80;45.40;;;;;;5103859;28;20581;-82
2023/07/28 11:56:52;;;;;;;0.40;0.40;;;28.80;45.40;;;;;;5110765;28;20670;-82
2023/07/28 11:59:22;;;;;;;0.32;0.32;;;28.90;45.30;;;;;;5105274;28;20201;-84
2023/07/28 12:01:55;;;;;;;0.30;0.30;;;28.90;44.90;;;;;;5106414;28;20209;-83
2023/07/28 12:04:28;;;;;;;0.28;0.28;;;29.00;45.30;;;;;;5105885;28;20544;-83
2023/07/28 12:07:07;;;;;;;0.20;0.20;;;29.00;45.10;;;;;;5111780;28;20193;-82
2023/07/28 12:09:51;;;;;;;2.25;1.52;;;29.00;44.60;;;;;;5112439;28;20193;-81
2023/07/28 12:12:33;;;;;;;5.38;1.85;;;29.10;45.40;;;;;;5111331;28;20188;-81
2023/07/28 12:15:20;;;;;;;0.43;0.43;;;29.00;44.50;;;;;;5105247;28;20652;-82
2023/07/28 12:18:04;;;;;;;0.30;0.30;;;29.10;45.00;;;;;;5109894;28;20291;-82
2023/07/28 12:20:37;;;;;;;0.65;0.55;;;29.10;45.20;;;;;;5113537;28;20233;-85
2023/07/28 12:23:08;;;;;;;0.30;0.30;;;29.20;45.00;;;;;;5106963;28;20545;-80
2023/07/28 12:25:39;;;;;;;0.35;0.30;;;29.20;44.60;;;;;;5110746;28;20190;-81
2023/07/28 12:28:08;;;;;;;0.20;0.20;;;29.10;42.80;;;;;;5112193;27;20220;-83
2023/07/28 12:30:43;;;;;;;0.25;0.25;;;29.20;42.70;;;;;;5112201;28;20189;-81
2023/07/28 12:33:11;;;;;;;0.17;0.17;;;29.20;43.30;;;;;;5104222;28;20542;-81
2023/07/28 12:35:43;;;;;;;1.00;0.68;;;29.20;43.50;;;;;;5111391;27;20198;-81
2023/07/28 12:38:14;;;;;;;0.20;0.20;;;29.20;43.50;;;;;;5100635;28;20209;-81
2023/07/28 12:40:45;;;;;;;0.82;0.80;;;29.30;44.40;;;;;;5108773;28;20189;-84
2023/07/28 12:43:17;;;;;;;0.30;0.30;;;29.30;43.40;;;;;;5107878;28;20201;-83
2023/07/28 12:45:49;;;;;;;0.20;0.20;;;29.40;43.90;;;;;;5109507;27;20193;-84
2023/07/28 12:48:21;;;;;;;0.20;0.20;;;29.40;44.20;;;;;;5110397;27;20197;-84
2023/07/28 12:50:49;;;;;;;0.30;0.30;;;29.40;43.10;;;;;;5109938;28;20201;-85
2023/07/28 12:53:30;;;;;;;0.30;0.30;;;29.50;43.10;;;;;;5110739;27;20238;-82
2023/07/28 12:55:58;;;;;;;0.63;0.30;;;29.50;43.00;;;;;;5108649;28;20193;-82
2023/07/28 12:58:28;;;;;;;0.20;0.20;;;29.50;42.90;;;;;;5108534;28;20224;-82
2023/07/28 13:01:03;;;;;;;0.30;0.30;;;29.40;42.80;;;;;;5108655;28;20201;-84
2023/07/28 13:03:32;;;;;;;0.57;0.38;;;29.40;43.20;;;;;;5107523;28;20189;-81